Terminal Aerodrome Forecast
Issued by NWS Binghamton, NY

Home | Current Version | Previous Version | Text Only | Print | Product List | Glossary On
Versions: 1 2 3 4 5 6 7 8 9 10 11 12 13 14 15 16 17 18 19 20 21 22 23 24 25
000
FTUS41 KBGM 210520
TAFAVP
TAF
KAVP 210520Z 2106/2206 VRB03KT 4SM BR OVC008
      TEMPO 2106/2110 1 1/2SM BR OVC003
     FM211000 VRB03KT 4SM BR OVC003
      TEMPO 2110/2113 2SM BR
     FM211300 VRB03KT 4SM BR OVC003
     FM211900 23004KT 4SM BR OVC015
     FM220000 00000KT 4SM BR OVC008=

USA.gov is the U.S. government's official web portal to all federal, state and local government web resources and services.